Nearby METAR Reports

 

KGRB - Ashwaubenon, Wisconsin, USA
Distance from station: NW 5mi, 8km
Updated: Thu, 15-Apr-2021 12:53am CDT
Overcast
Overcast
 Wind from NNW
Wind: NNW 8 mph , 13 km/h
Temperature: 37°F , 3°C
Wind Chill: 31°F , -1°C
Dew Point: 34°F , 1°C
Humidity: 87%
Barometer: 30.00 inHg , 1015.9 hPa
Clouds: Overcast
Visibility: 10 miles , 16 km
Cloud details: Overcast 6500 ft
2021/04/15 05:53 KGRB 150553Z AUTO 33007KT 10SM OVC065 03/01 A3000 RMK AO2 SLP165 60003 T00330011 10067 20033 400830006 55004
KATW - Appleton/Outagam, Wisconsin, USA
Distance from station: WSW 26mi, 42km
Updated: Thu, 15-Apr-2021 12:35am CDT
Overcast
Overcast
 Wind from NW
Wind: NW 8 mph , 13 km/h
Temperature: 36°F , 2°C
Wind Chill: 30°F , -1°C
Dew Point: 34°F , 1°C
Humidity: 93%
Barometer: 30.00 inHg , 1015.9 hPa
Clouds: Overcast
Visibility: 10 miles , 16 km
Cloud details: Partly cloudy 1900 ft
Overcast 2500 ft
2021/04/15 05:35 KATW 150535Z AUTO 31007KT 10SM SCT019 OVC025 02/01 A3000 RMK AO2
 
KMTW - Manitowac Muni, Wisconsin, USA
Distance from station: SE 29mi, 47km
Updated: Thu, 15-Apr-2021 12:56am CDT
Overcast
Overcast
 Wind from WNW
Wind: WNW 9 mph , 15 km/h
Temperature: 37°F , 3°C
Wind Chill: 30°F , -1°C
Dew Point: 37°F , 3°C
Humidity: 100%
Barometer: 29.99 inHg , 1015.6 hPa
Clouds: Overcast
Visibility: 10 miles , 16 km
Cloud details: Few Clouds 1800 ft
Overcast 2700 ft
2021/04/15 05:56 KMTW 150556Z AUTO 30008KT 10SM FEW018 OVC027 03/03 A2999 RMK AO2 SLP160 60000 T00330028 10056 20033 58004
KOCQ - Oconto, Wisconsin, USA
Distance from station: NNE 30mi, 49km
Updated: Thu, 15-Apr-2021 12:55am CDT
Overcast
Overcast
 Wind from NW
Wind: NW 5 mph , 7 km/h
Temperature: 37°F , 3°C
Wind Chill: 33°F , 1°C
Dew Point: 36°F , 2°C
Humidity: 93%
Barometer: 29.99 inHg , 1015.6 hPa
Clouds: Overcast
Visibility: 10 miles , 16 km
Cloud details: Partly cloudy 1300 ft
Mostly cloudy 3800 ft
Overcast 5000 ft
2021/04/15 05:55 KOCQ 150555Z AUTO 31004KT 10SM SCT013 BKN038 OVC050 03/02 A2999 RMK AO1 60002 T00260020 10040 20016 400810010
 
KEZS - Shawano Muni, Wisconsin, USA
Distance from station: NW 35mi, 56km
Updated: Thu, 15-Apr-2021 12:55am CDT
Overcast
Overcast
 Wind from NW
Wind: NW 5 mph , 7 km/h
Temperature: 39°F , 4°C
Wind Chill: 35°F , 2°C
Dew Point: 36°F , 2°C
Humidity: 87%
Barometer: 30.02 inHg , 1016.6 hPa
Clouds: Overcast
Visibility: 10 miles , 16 km
Cloud details: Partly cloudy 2100 ft
Mostly cloudy 3100 ft
Overcast 4500 ft
2021/04/15 05:55 KEZS 150555Z AUTO 32004KT 10SM SCT021 BKN031 OVC045 04/02 A3002 RMK AO2 T00370016 10072 20033 400840010
KCLI - Clintonville, Wisconsin, USA
Distance from station: WNW 36mi, 58km
Updated: Thu, 15-Apr-2021 12:55am CDT
Overcast
Overcast
 Wind from NNW
Wind: NNW 6 mph , 9 km/h
Temperature: 37°F , 3°C
Wind Chill: 32°F , 0°C
Dew Point: 32°F , 0°C
Humidity: 81%
Barometer: 30.03 inHg , 1016.9 hPa
Clouds: Overcast
Visibility: 10 miles , 16 km
Cloud details: Mostly cloudy 2200 ft
Overcast 2900 ft
2021/04/15 05:55 KCLI 150555Z AUTO 33005KT 10SM BKN022 OVC029 03/00 A3003 RMK AO2 T00300000 10063 20028
 
KOSH - Oshkosh, Wisconsin, USA
Distance from station: SW 41mi, 66km
Updated: Thu, 15-Apr-2021 12:53am CDT
Overcast
Overcast
 Wind from NW
Wind: NW 7 mph , 11 km/h
Temperature: 37°F , 3°C
Wind Chill: 32°F , 0°C
Dew Point: 34°F , 1°C
Humidity: 87%
Barometer: 30.00 inHg , 1015.9 hPa
Clouds: Overcast
Visibility: 10 miles , 16 km
Cloud details: Mostly cloudy 1500 ft
Overcast 2600 ft
2021/04/15 05:53 KOSH 150553Z AUTO 31006KT 10SM BKN015 OVC026 03/01 A3000 RMK AO2 SLP169 60000 T00330011 10044 20028 400560000 56005
KSUE - Sturgeon Bay, Wisconsin, USA
Distance from station: NE 42mi, 68km
Updated: Thu, 15-Apr-2021 12:56am CDT
Light rain, Overcast
Light rain, Overcast
 Wind from NW
Wind: NW 12 mph , 19 km/h
Temperature: 36°F , 2°C
Wind Chill: 28°F , -2°C
Dew Point: 34°F , 1°C
Humidity: 93%
Barometer: 29.97 inHg , 1014.9 hPa
Summary: Light rain
Clouds: Overcast
Visibility: 10 miles , 16 km
Cloud details: Mostly cloudy 800 ft
Overcast 1200 ft
2021/04/15 05:56 KSUE 150556Z AUTO 32010KT 10SM -RA BKN008 OVC012 02/01 A2997 RMK AO2 UPB0457E03 SLP153 P0000 60000 T00220011 10033 20022 400610011 58009 FZRANO
 
KSBM - Sheboygan, Wisconsin, USA
Distance from station: SSE 46mi, 75km
Updated: Thu, 15-Apr-2021 12:53am CDT
Overcast
Overcast
 Wind from NW
Wind: NW 8 mph , 13 km/h
Temperature: 39°F , 4°C
Wind Chill: 33°F , 1°C
Dew Point: 34°F , 1°C
Humidity: 81%
Barometer: 29.98 inHg , 1015.2 hPa
Clouds: Overcast
Visibility: 10 miles , 16 km
Cloud details: Few Clouds 1400 ft
Overcast 2600 ft
2021/04/15 05:53 KSBM 150553Z AUTO 32007KT 10SM FEW014 OVC026 04/01 A2998 RMK AO2 SLP160 60000 T00390006 10050 20028 400610017 56006
KPCZ - Waupaca, Wisconsin, USA
Distance from station: W 48mi, 77km
Updated: Thu, 15-Apr-2021 12:55am CDT
Partly cloudy
Partly cloudy
 Wind from NW
Wind: NW 7 mph , 11 km/h
Temperature: 37°F , 3°C
Wind Chill: 32°F , 0°C
Dew Point: 34°F , 1°C
Humidity: 87%
Barometer: 30.03 inHg , 1016.9 hPa
Clouds: Partly cloudy
Visibility: 10 miles , 16 km
Cloud details: Partly cloudy 6000 ft
2021/04/15 05:55 KPCZ 150555Z AUTO 32006KT 10SM SCT060 03/01 A3003 RMK AO2 T00270005 10057 20027